Terminal Aerodrome Forecast
Issued by NWS

Home | Current Version | Previous Version | Text Only | Print | Product List | Glossary On
Versions: 1 2 3 4 5 6 7 8 9 10 11 12 13 14 15 16 17 18
000
FTUS44 KOHX 061139 AAQ
TAFMQY
TAF AMD
KMQY 061139Z 0612/0712 29005KT P6SM FEW250
     FM062300 28008KT P6SM VCTS BKN080CB
     FM070100 28007KT P6SM VCSH BKN060
     FM070400 30007KT P6SM BKN040=

USA.gov is the U.S. government's official web portal to all federal, state and local government web resources and services.